Hartville, Ohio
Current Conditions -  °F | °C
As of 5:51 PM on Friday 28 Nov 2014 (Local Time) from KCAK Reporting Station
Light Snow Light Snow  
Wind Chill: 20°   Ceiling: 4600
Heat Index: 28°   Visibility: 3mi
Dew Point: 18°   Wind: 8mph
Humidity: 66%   Direction: 210°SSW
Pressure: 30.2"   Gusts: NA
Location:  40.96°N, 81.33°W
Report Text: KCAK 282251Z 21007KT 3SM -SN SCT036 BKN046 OVC085 M02/M08 A3020 RMK AO2 SNB50 SLP243 P0000 T10221078
Loading
Personal Weather Stations






























Interactive Weather Map New forecast layout! Learn more

10-Day Weather Forecast

Advertisements
Track Severe Weather on mobile